Terminal Aerodrome Forecast
Issued by NWS

Home | Current Version | Previous Version | Text Only | Print | Product List | Glossary On
Versions: 1 2 3 4 5 6 7 8 9 10 11 12 13
000
FTUS45 KGJT 192345
TAFASE
TAF
KASE 192345Z 2000/2024 32012G22KT P6SM FEW100 SCT250
     FM200200 22010G18KT P6SM FEW090 SCT200 WS020/25040KT
     FM200600 17006KT P6SM FEW100 SCT150
     FM201800 21012G22KT P6SM FEW090 SCT200=

USA.gov is the U.S. government's official web portal to all federal, state and local government web resources and services.